Time;durP1;ratioP1;P1;durP2;ratioP2;P2;SDS_P1;SDS_P2;PMS_P1;PMS_P2;Temp;Humidity;BMP_temperature;BMP_pressure;BME280_temperature;BME280_humidity;BME280_pressure;Samples;Min_cycle;Max_cycle;Signal;HPM_P1;HPM_P2
2023/08/30 00:00:47;;;;;;;20.20;18.83;;;13.50;99.90;;;;;;4993200;28;20256;-81
2023/08/30 00:03:14;;;;;;;20.40;19.10;;;13.50;99.90;;;;;;4995064;28;20239;-81
2023/08/30 00:05:41;;;;;;;19.33;18.13;;;13.50;99.90;;;;;;5009915;28;20595;-81
2023/08/30 00:08:08;;;;;;;19.07;17.87;;;13.50;99.90;;;;;;4993456;28;20197;-81
2023/08/30 00:10:35;;;;;;;20.80;19.30;;;13.50;99.90;;;;;;4993661;28;20232;-81
2023/08/30 00:13:02;;;;;;;20.60;19.30;;;13.50;99.90;;;;;;4993390;28;20209;-81
2023/08/30 00:15:30;;;;;;;21.10;19.60;;;13.50;99.90;;;;;;5009577;28;20209;-80
2023/08/30 00:17:57;;;;;;;21.13;19.53;;;13.60;99.90;;;;;;5001863;28;20205;-80
2023/08/30 00:20:24;;;;;;;21.70;20.20;;;13.60;99.90;;;;;;4993425;28;20457;-81
2023/08/30 00:22:51;;;;;;;21.80;20.17;;;13.50;99.90;;;;;;4992696;28;20208;-81
2023/08/30 00:25:18;;;;;;;20.17;18.77;;;13.60;99.90;;;;;;4991531;28;20213;-79
2023/08/30 00:27:44;;;;;;;20.97;19.57;;;13.50;99.90;;;;;;4994034;28;20204;-81
2023/08/30 00:30:13;;;;;;;20.73;19.33;;;13.50;99.90;;;;;;4992925;28;20217;-81
2023/08/30 00:32:41;;;;;;;21.40;19.80;;;13.50;99.90;;;;;;5009425;28;20210;-81
2023/08/30 00:35:08;;;;;;;20.17;18.80;;;13.40;99.90;;;;;;4992646;28;20212;-80
2023/08/30 00:37:35;;;;;;;21.23;19.70;;;13.50;99.90;;;;;;4993938;28;20197;-81
2023/08/30 00:40:03;;;;;;;22.33;20.80;;;13.40;99.90;;;;;;4993961;28;20213;-80
2023/08/30 00:42:29;;;;;;;22.07;20.47;;;13.50;99.90;;;;;;4992986;28;20193;-81
2023/08/30 00:44:56;;;;;;;21.53;20.10;;;13.40;99.90;;;;;;4991850;28;20201;-80
2023/08/30 00:47:23;;;;;;;22.50;21.00;;;13.40;99.90;;;;;;4992978;28;20268;-81
2023/08/30 00:49:52;;;;;;;21.03;19.63;;;13.40;99.90;;;;;;4991661;28;20216;-81
2023/08/30 00:52:19;;;;;;;22.03;20.53;;;13.40;99.90;;;;;;4992283;28;20201;-81
2023/08/30 00:54:46;;;;;;;21.70;20.20;;;13.40;99.90;;;;;;4993856;28;20212;-81
2023/08/30 00:57:13;;;;;;;20.17;18.87;;;13.40;99.90;;;;;;4992634;28;20252;-81
2023/08/30 00:59:40;;;;;;;19.47;18.13;;;13.40;99.90;;;;;;5009699;28;20205;-81
2023/08/30 01:02:07;;;;;;;20.73;19.33;;;13.40;99.90;;;;;;5008841;28;20206;-81
2023/08/30 01:04:34;;;;;;;20.43;19.13;;;13.40;99.90;;;;;;4992503;28;20221;-81
2023/08/30 01:07:02;;;;;;;19.80;18.40;;;13.40;99.90;;;;;;5008381;28;20209;-80
2023/08/30 01:09:29;;;;;;;20.30;19.00;;;13.30;99.90;;;;;;5009080;28;20204;-81
2023/08/30 01:12:01;;;;;;;19.83;18.43;;;13.30;99.90;;;;;;4993421;28;20602;-80
2023/08/30 01:14:35;;;;;;;20.43;18.93;;;13.20;99.90;;;;;;4993789;28;20209;-80
2023/08/30 01:17:02;;;;;;;19.70;18.30;;;13.20;99.90;;;;;;5000792;28;20205;-80
2023/08/30 01:19:42;;;;;;;19.33;18.03;;;13.20;99.90;;;;;;5008790;28;20212;-80
2023/08/30 01:22:17;;;;;;;18.53;17.33;;;13.10;99.90;;;;;;5008471;28;20228;-80
2023/08/30 01:24:53;;;;;;;20.93;19.27;;;13.10;99.90;;;;;;5003086;28;20204;-81
2023/08/30 01:27:23;;;;;;;20.07;18.67;;;13.00;99.90;;;;;;4992522;28;20212;-80
2023/08/30 01:29:50;;;;;;;19.00;17.63;;;13.00;99.90;;;;;;4994272;28;20209;-80
2023/08/30 01:32:20;;;;;;;20.33;18.93;;;13.00;99.90;;;;;;4992419;28;20255;-80
2023/08/30 01:34:49;;;;;;;20.40;19.00;;;13.00;99.90;;;;;;4995458;28;20216;-79
2023/08/30 01:37:16;;;;;;;21.50;19.90;;;13.00;99.90;;;;;;4996091;28;20202;-80
2023/08/30 01:39:43;;;;;;;21.20;19.73;;;13.00;99.90;;;;;;5012316;28;20298;-80
2023/08/30 01:42:11;;;;;;;21.00;19.57;;;12.90;99.90;;;;;;5012493;28;20259;-80
2023/08/30 01:44:41;;;;;;;20.30;18.90;;;12.90;99.90;;;;;;4995837;28;20236;-80
2023/08/30 01:47:08;;;;;;;21.30;19.90;;;12.90;99.90;;;;;;4997145;28;20204;-80
2023/08/30 01:49:37;;;;;;;20.03;18.73;;;12.90;99.90;;;;;;4995727;28;20204;-80
2023/08/30 01:52:05;;;;;;;21.17;19.60;;;12.90;99.90;;;;;;4995312;28;20209;-80
2023/08/30 01:54:33;;;;;;;19.93;18.63;;;12.80;99.90;;;;;;4995558;28;20611;-81
2023/08/30 01:57:00;;;;;;;20.60;19.20;;;12.80;99.90;;;;;;5020065;28;20204;-80
2023/08/30 01:59:27;;;;;;;21.37;19.87;;;12.80;99.90;;;;;;4996771;28;20667;-80
2023/08/30 02:01:56;;;;;;;21.20;19.70;;;12.80;99.90;;;;;;5012071;28;20239;-80
2023/08/30 02:04:23;;;;;;;21.90;20.40;;;12.70;99.90;;;;;;4995766;28;20206;-80
2023/08/30 02:06:58;;;;;;;23.53;21.83;;;12.70;99.90;;;;;;5011576;28;20235;-80
2023/08/30 02:09:29;;;;;;;22.60;21.00;;;12.70;99.90;;;;;;5011840;28;20208;-80
2023/08/30 02:11:57;;;;;;;21.83;20.33;;;12.70;99.90;;;;;;5012020;28;20228;-80
2023/08/30 02:14:27;;;;;;;22.50;20.80;;;12.70;99.90;;;;;;5009197;28;20279;-80
2023/08/30 02:16:56;;;;;;;22.30;20.70;;;12.70;99.90;;;;;;4990554;28;20200;-80
2023/08/30 02:19:24;;;;;;;21.00;19.50;;;12.70;99.90;;;;;;4995641;28;20284;-80
2023/08/30 02:21:51;;;;;;;22.93;21.23;;;12.70;99.90;;;;;;4996607;28;20213;-80
2023/08/30 02:24:19;;;;;;;23.63;21.93;;;12.80;99.90;;;;;;4994340;28;20205;-80
2023/08/30 02:26:45;;;;;;;23.80;22.00;;;12.80;99.90;;;;;;4994923;28;20295;-80
2023/08/30 02:29:14;;;;;;;23.93;22.23;;;12.80;99.90;;;;;;4996366;28;20573;-80
2023/08/30 02:31:41;;;;;;;23.27;21.57;;;12.90;99.90;;;;;;4996312;28;20300;-81
2023/08/30 02:34:09;;;;;;;21.10;19.60;;;12.90;99.90;;;;;;5011502;28;20228;-79
2023/08/30 02:36:37;;;;;;;20.90;19.50;;;12.90;99.90;;;;;;4996313;28;20243;-80
2023/08/30 02:39:04;;;;;;;24.03;22.27;;;12.90;99.90;;;;;;5011100;28;20643;-79
2023/08/30 02:41:31;;;;;;;22.70;21.00;;;12.90;99.90;;;;;;5011267;28;20272;-82
2023/08/30 02:43:58;;;;;;;23.57;21.87;;;12.90;99.90;;;;;;5011050;28;20212;-80
2023/08/30 02:46:24;;;;;;;24.47;22.73;;;12.90;99.90;;;;;;4993617;28;20709;-79
2023/08/30 02:48:51;;;;;;;24.40;22.43;;;12.90;99.90;;;;;;4994573;28;20200;-80
2023/08/30 02:51:19;;;;;;;25.10;23.20;;;12.90;99.90;;;;;;5009065;28;20225;-80
2023/08/30 02:53:46;;;;;;;22.90;21.27;;;12.90;99.90;;;;;;4995642;28;20196;-81
2023/08/30 02:56:13;;;;;;;22.90;21.17;;;12.90;99.90;;;;;;4996210;28;20267;-81
2023/08/30 02:58:40;;;;;;;22.30;20.70;;;12.90;99.90;;;;;;5001793;28;20663;-81
2023/08/30 03:01:06;;;;;;;24.97;23.17;;;12.90;99.90;;;;;;5011481;28;20734;-81
2023/08/30 03:03:34;;;;;;;23.53;21.83;;;12.90;99.90;;;;;;5012999;28;20621;-82
2023/08/30 03:06:02;;;;;;;23.30;21.60;;;13.00;99.90;;;;;;4989524;28;20200;-82
2023/08/30 03:08:32;;;;;;;23.70;21.90;;;13.00;99.90;;;;;;4997144;28;20204;-82
2023/08/30 03:11:09;;;;;;;24.17;22.27;;;13.00;99.90;;;;;;4994476;28;20227;-81
2023/08/30 03:13:36;;;;;;;25.20;23.30;;;12.90;99.90;;;;;;5014045;28;20774;-81
2023/08/30 03:16:10;;;;;;;25.77;23.70;;;12.90;99.90;;;;;;5005543;28;20754;-81
2023/08/30 03:18:37;;;;;;;23.17;21.47;;;12.90;99.90;;;;;;4986149;28;20197;-81
2023/08/30 03:21:04;;;;;;;21.80;20.30;;;12.90;99.90;;;;;;4994320;28;20300;-81
2023/08/30 03:23:33;;;;;;;23.47;21.83;;;13.00;99.90;;;;;;4994608;28;20720;-80
2023/08/30 03:26:00;;;;;;;22.50;20.93;;;13.00;99.90;;;;;;4993938;28;20203;-80
2023/08/30 03:28:27;;;;;;;24.13;22.33;;;12.90;99.90;;;;;;4996139;28;20204;-80
2023/08/30 03:30:54;;;;;;;23.40;21.70;;;12.90;99.90;;;;;;4994163;28;20221;-78
2023/08/30 03:33:22;;;;;;;24.07;22.27;;;12.90;99.90;;;;;;4994207;28;20205;-83
2023/08/30 03:35:49;;;;;;;24.07;22.17;;;12.90;99.90;;;;;;4991564;28;20653;-78
2023/08/30 03:38:16;;;;;;;24.43;22.67;;;12.90;99.90;;;;;;5008028;28;20206;-79
2023/08/30 03:40:45;;;;;;;24.33;22.53;;;12.90;99.90;;;;;;4991423;28;20227;-78
2023/08/30 03:43:12;;;;;;;25.63;23.43;;;12.90;99.90;;;;;;4991982;28;20393;-78
2023/08/30 03:45:39;;;;;;;24.10;22.40;;;12.90;99.90;;;;;;4991944;28;20196;-77
2023/08/30 03:48:06;;;;;;;26.50;24.40;;;12.90;99.90;;;;;;4991216;28;20208;-77
2023/08/30 03:50:33;;;;;;;24.30;22.47;;;12.80;99.90;;;;;;4991338;28;20239;-78
2023/08/30 03:53:01;;;;;;;22.40;20.80;;;12.80;99.90;;;;;;4990733;28;20207;-77
2023/08/30 03:55:27;;;;;;;25.47;23.47;;;12.80;99.90;;;;;;4992925;28;20232;-78
2023/08/30 03:57:56;;;;;;;23.03;21.33;;;12.80;99.90;;;;;;4990729;28;20216;-77
2023/08/30 04:00:23;;;;;;;24.00;22.20;;;12.70;99.90;;;;;;5021473;22;20547;-74
2023/08/30 04:02:51;;;;;;;23.03;21.43;;;12.70;99.90;;;;;;5030850;28;20200;-75
2023/08/30 04:05:17;;;;;;;23.30;21.60;;;12.70;99.90;;;;;;5030056;28;20211;-75
2023/08/30 04:07:44;;;;;;;23.10;21.50;;;12.70;99.90;;;;;;5031091;28;20195;-75
2023/08/30 04:10:11;;;;;;;21.97;20.43;;;12.70;99.90;;;;;;5030475;28;20195;-75
2023/08/30 04:12:38;;;;;;;22.53;21.03;;;12.70;99.90;;;;;;5030980;28;20249;-75
2023/08/30 04:15:07;;;;;;;21.80;20.30;;;12.80;99.90;;;;;;5029044;28;20254;-75
2023/08/30 04:17:34;;;;;;;20.97;19.57;;;12.80;99.90;;;;;;5030993;28;20204;-74
2023/08/30 04:20:02;;;;;;;22.23;20.73;;;12.80;99.90;;;;;;5030765;28;20196;-74
2023/08/30 04:22:28;;;;;;;24.30;22.50;;;12.80;99.90;;;;;;5031498;28;20207;-74
2023/08/30 04:24:55;;;;;;;23.27;21.67;;;12.80;99.90;;;;;;5030679;28;20199;-74
2023/08/30 04:27:22;;;;;;;22.77;21.17;;;12.80;99.90;;;;;;5028899;28;20199;-74
2023/08/30 04:29:49;;;;;;;22.47;20.97;;;12.70;99.90;;;;;;5021701;28;20198;-74
2023/08/30 04:32:17;;;;;;;22.27;20.77;;;12.70;99.90;;;;;;5019588;28;20229;-74
2023/08/30 04:34:44;;;;;;;21.70;20.30;;;12.60;99.90;;;;;;5020917;28;20204;-74
2023/08/30 04:37:11;;;;;;;22.10;20.60;;;12.60;99.90;;;;;;5019377;28;20255;-74
2023/08/30 04:39:38;;;;;;;24.07;22.47;;;12.60;99.90;;;;;;5019697;28;20210;-74
2023/08/30 04:42:05;;;;;;;23.67;22.07;;;12.50;99.90;;;;;;5020518;28;20238;-74
2023/08/30 04:44:32;;;;;;;23.17;21.60;;;12.50;99.90;;;;;;5022060;28;20214;-74
2023/08/30 04:46:59;;;;;;;23.70;22.07;;;12.50;99.90;;;;;;5021693;28;20204;-74
2023/08/30 04:49:29;;;;;;;23.43;21.73;;;12.50;99.90;;;;;;5020681;28;20206;-74
2023/08/30 04:51:56;;;;;;;24.97;23.17;;;12.60;99.90;;;;;;5018948;28;20230;-74
2023/08/30 04:54:23;;;;;;;23.77;22.10;;;12.60;99.90;;;;;;5020030;28;20203;-74
2023/08/30 04:56:51;;;;;;;24.53;22.67;;;12.60;99.90;;;;;;5020524;28;20701;-74
2023/08/30 04:59:18;;;;;;;22.80;21.20;;;12.60;99.90;;;;;;5023695;28;20204;-74
2023/08/30 05:01:47;;;;;;;22.80;21.27;;;12.60;99.90;;;;;;5024488;28;20231;-74
2023/08/30 05:04:15;;;;;;;25.23;23.40;;;12.60;99.90;;;;;;5031537;28;20206;-75
2023/08/30 05:06:43;;;;;;;24.60;22.70;;;12.70;99.90;;;;;;5025318;28;20213;-75
2023/08/30 05:09:10;;;;;;;22.57;20.97;;;12.70;99.90;;;;;;5023688;28;20194;-74
2023/08/30 05:11:37;;;;;;;22.43;20.87;;;12.70;99.90;;;;;;5025414;28;20228;-75
2023/08/30 05:14:04;;;;;;;22.23;20.77;;;12.80;99.90;;;;;;5044596;28;20700;-75
2023/08/30 05:16:31;;;;;;;21.90;20.40;;;12.90;99.90;;;;;;5031865;28;20226;-75
2023/08/30 05:18:58;;;;;;;23.37;21.73;;;12.90;99.90;;;;;;5033537;28;20205;-75
2023/08/30 05:21:25;;;;;;;22.73;21.13;;;12.90;99.90;;;;;;5024833;28;20219;-74
2023/08/30 05:23:54;;;;;;;23.83;22.17;;;13.00;99.90;;;;;;5031029;28;20556;-75
2023/08/30 05:26:21;;;;;;;21.90;20.40;;;13.00;99.90;;;;;;5033459;28;20214;-76
2023/08/30 05:28:48;;;;;;;22.47;20.97;;;13.10;99.90;;;;;;5025560;28;20207;-77
2023/08/30 05:31:15;;;;;;;23.60;21.80;;;13.20;99.90;;;;;;5020456;28;20252;-75
2023/08/30 05:34:04;;;;;;;22.70;21.10;;;13.30;99.90;;;;;;5018961;28;20217;-75
2023/08/30 05:36:30;;;;;;;22.50;21.00;;;13.30;99.90;;;;;;5025685;28;20300;-77
2023/08/30 05:39:05;;;;;;;23.30;21.70;;;13.30;99.90;;;;;;5031205;28;20338;-77
2023/08/30 05:41:37;;;;;;;22.77;21.07;;;13.30;99.90;;;;;;5024074;28;20231;-75
2023/08/30 05:44:05;;;;;;;22.43;20.93;;;13.30;99.90;;;;;;5029408;28;20259;-75
2023/08/30 05:46:32;;;;;;;21.07;19.67;;;13.30;99.90;;;;;;5027737;28;20199;-74
2023/08/30 05:49:00;;;;;;;22.50;21.00;;;13.40;99.90;;;;;;5031668;28;20216;-81
2023/08/30 05:51:27;;;;;;;22.87;21.27;;;13.50;99.90;;;;;;5035135;28;20220;-76
2023/08/30 05:53:54;;;;;;;22.93;21.43;;;13.50;99.90;;;;;;5033167;28;20197;-79
2023/08/30 05:56:22;;;;;;;24.17;22.47;;;13.50;99.90;;;;;;5035888;28;20220;-78
2023/08/30 05:58:49;;;;;;;22.80;21.30;;;13.50;99.90;;;;;;5024852;28;20284;-76
2023/08/30 06:01:19;;;;;;;22.40;20.90;;;13.60;99.90;;;;;;5016366;28;20798;-76
2023/08/30 06:03:46;;;;;;;22.60;21.10;;;13.70;99.90;;;;;;5028890;28;20255;-76
2023/08/30 06:06:13;;;;;;;22.53;21.03;;;13.70;99.90;;;;;;5031591;28;20204;-76
2023/08/30 06:08:40;;;;;;;22.50;21.10;;;13.80;99.90;;;;;;5026544;28;20193;-76
2023/08/30 06:11:07;;;;;;;22.07;20.67;;;13.80;99.90;;;;;;5031612;28;20211;-76
2023/08/30 06:13:35;;;;;;;22.80;21.23;;;13.80;99.90;;;;;;5031708;28;20192;-77
2023/08/30 06:16:02;;;;;;;21.73;20.33;;;13.90;99.90;;;;;;5030766;28;20220;-78
2023/08/30 06:18:31;;;;;;;21.33;20.03;;;13.90;99.90;;;;;;5029874;28;20211;-78
2023/08/30 06:20:58;;;;;;;22.10;20.60;;;13.90;99.90;;;;;;5034479;28;20220;-78
2023/08/30 06:23:25;;;;;;;20.70;19.40;;;13.90;99.90;;;;;;5031562;28;20196;-78
2023/08/30 06:25:55;;;;;;;20.60;19.20;;;13.90;99.90;;;;;;5027782;28;20271;-76
2023/08/30 06:28:22;;;;;;;21.10;19.70;;;14.00;99.90;;;;;;5026578;28;20803;-78
2023/08/30 06:30:50;;;;;;;20.10;18.70;;;14.10;99.90;;;;;;5027862;28;21977;-77
2023/08/30 06:33:17;;;;;;;19.57;18.27;;;14.20;99.90;;;;;;5028506;28;20658;-76
2023/08/30 06:35:44;;;;;;;19.20;17.90;;;14.30;99.90;;;;;;5030491;28;20215;-78
2023/08/30 06:38:11;;;;;;;20.33;18.70;;;14.40;99.90;;;;;;5028494;28;20659;-78
2023/08/30 06:40:43;;;;;;;19.00;17.70;;;14.50;99.90;;;;;;5023206;28;20221;-78
2023/08/30 06:43:10;;;;;;;18.93;17.63;;;14.60;99.90;;;;;;5031329;28;20192;-78
2023/08/30 06:45:37;;;;;;;18.90;17.60;;;14.60;99.90;;;;;;5022644;28;20205;-78
2023/08/30 06:48:07;;;;;;;18.63;17.40;;;14.70;99.90;;;;;;5029166;28;20192;-78
2023/08/30 06:50:34;;;;;;;23.73;22.33;;;14.80;99.90;;;;;;5028417;28;20253;-82
2023/08/30 06:53:01;;;;;;;19.17;17.87;;;14.90;99.90;;;;;;5022501;28;20728;-78
2023/08/30 06:55:27;;;;;;;18.57;17.47;;;15.00;99.90;;;;;;5033601;28;20202;-78
2023/08/30 06:57:54;;;;;;;19.77;18.20;;;15.10;99.90;;;;;;5027708;28;20198;-79
2023/08/30 07:00:21;;;;;;;19.30;18.10;;;15.20;99.90;;;;;;5030236;28;20281;-78
2023/08/30 07:02:48;;;;;;;19.13;17.83;;;15.20;99.90;;;;;;5027076;28;20201;-78
2023/08/30 07:05:16;;;;;;;18.17;16.80;;;15.40;99.90;;;;;;5026760;28;20211;-77
2023/08/30 07:07:43;;;;;;;17.80;16.70;;;15.50;99.90;;;;;;5030698;28;20203;-78
2023/08/30 07:10:10;;;;;;;17.93;16.63;;;15.60;99.90;;;;;;5026487;28;20253;-78
2023/08/30 07:12:37;;;;;;;18.17;16.87;;;15.60;99.90;;;;;;5025151;28;20210;-77
2023/08/30 07:15:05;;;;;;;17.37;16.27;;;15.70;99.90;;;;;;5029697;28;20228;-78
2023/08/30 07:17:31;;;;;;;16.87;15.73;;;15.80;99.90;;;;;;5031002;28;20223;-78
2023/08/30 07:19:58;;;;;;;17.00;15.80;;;16.00;99.90;;;;;;5033544;28;20670;-78
2023/08/30 07:22:26;;;;;;;16.37;15.37;;;16.00;99.90;;;;;;5029287;28;20204;-78
2023/08/30 07:24:53;;;;;;;16.27;15.17;;;16.20;99.90;;;;;;5023674;28;20210;-78
2023/08/30 07:27:20;;;;;;;15.13;14.17;;;16.20;99.90;;;;;;5025699;28;20192;-78
2023/08/30 07:29:47;;;;;;;16.00;14.87;;;16.40;99.90;;;;;;5025016;28;20202;-79
2023/08/30 07:32:14;;;;;;;15.77;14.77;;;16.50;99.90;;;;;;5026823;28;20235;-78
2023/08/30 07:34:41;;;;;;;15.63;14.63;;;16.70;99.90;;;;;;5023693;28;20204;-78
2023/08/30 07:37:19;;;;;;;7.77;6.97;;;16.90;99.90;;;;;;5028506;28;20219;-78
2023/08/30 07:39:47;;;;;;;8.53;7.67;;;17.00;99.90;;;;;;5030399;28;20275;-78
2023/08/30 07:42:15;;;;;;;9.33;8.53;;;17.10;99.90;;;;;;5025490;28;20249;-77
2023/08/30 07:44:42;;;;;;;7.30;6.60;;;17.30;99.90;;;;;;5023284;28;20206;-77
2023/08/30 07:47:08;;;;;;;8.77;8.00;;;17.40;99.90;;;;;;5023837;28;20200;-77
2023/08/30 07:49:35;;;;;;;6.67;6.07;;;17.50;99.90;;;;;;5020711;28;20209;-79
2023/08/30 07:52:02;;;;;;;7.17;6.10;;;17.70;99.90;;;;;;5041358;28;20221;-79
2023/08/30 07:54:29;;;;;;;7.43;6.57;;;17.80;99.90;;;;;;5029309;28;20746;-78
2023/08/30 07:56:57;;;;;;;6.80;5.87;;;17.70;99.90;;;;;;5028495;28;20233;-78
2023/08/30 07:59:24;;;;;;;6.47;5.87;;;17.80;99.90;;;;;;5028607;28;20698;-77
2023/08/30 08:01:51;;;;;;;6.43;5.83;;;17.90;99.90;;;;;;5031134;28;20294;-79
2023/08/30 08:04:19;;;;;;;6.17;5.67;;;18.00;99.90;;;;;;5030795;28;20205;-77
2023/08/30 08:06:46;;;;;;;6.70;6.10;;;18.10;99.90;;;;;;5033140;28;20199;-77
2023/08/30 08:09:13;;;;;;;5.50;5.00;;;18.20;99.90;;;;;;5030564;28;20198;-78
2023/08/30 08:11:43;;;;;;;10.63;9.83;;;18.20;99.90;;;;;;5029850;28;20715;-78
2023/08/30 08:14:11;;;;;;;7.27;6.67;;;18.20;99.90;;;;;;5029383;28;20256;-79
2023/08/30 08:16:39;;;;;;;4.90;4.50;;;18.20;99.90;;;;;;5027049;28;20210;-78
2023/08/30 08:19:07;;;;;;;5.30;4.80;;;18.30;99.90;;;;;;5032757;28;20261;-77
2023/08/30 08:21:34;;;;;;;5.57;5.07;;;18.30;99.90;;;;;;5026176;28;20283;-78
2023/08/30 08:24:01;;;;;;;5.97;4.97;;;18.40;99.90;;;;;;5024307;28;20763;-78
2023/08/30 08:26:27;;;;;;;13.23;12.40;;;18.50;99.90;;;;;;5034502;28;20207;-77
2023/08/30 08:28:55;;;;;;;5.63;5.13;;;18.50;99.90;;;;;;5030316;28;20199;-77
2023/08/30 08:31:23;;;;;;;5.17;4.77;;;18.50;99.90;;;;;;5030128;28;20749;-77
2023/08/30 08:34:05;;;;;;;12.70;11.80;;;18.70;99.90;;;;;;5028414;28;20205;-77
2023/08/30 08:36:32;;;;;;;11.00;10.30;;;18.80;99.90;;;;;;5028130;28;20274;-77
2023/08/30 08:38:59;;;;;;;11.33;10.53;;;18.80;99.90;;;;;;5026212;28;20203;-77
2023/08/30 08:41:31;;;;;;;9.53;8.87;;;19.00;99.90;;;;;;5027284;28;20223;-77
2023/08/30 08:44:00;;;;;;;4.73;4.33;;;19.00;99.90;;;;;;5028633;28;20569;-77
2023/08/30 08:46:31;;;;;;;5.43;5.03;;;19.10;99.90;;;;;;5027791;28;20198;-77
2023/08/30 08:48:59;;;;;;;7.27;6.70;;;19.20;99.90;;;;;;5028291;28;20285;-77
2023/08/30 08:51:27;;;;;;;7.07;6.47;;;19.20;99.90;;;;;;5024233;28;20215;-77
2023/08/30 08:53:59;;;;;;;7.53;6.93;;;19.30;99.90;;;;;;5031859;28;20253;-77
2023/08/30 08:56:26;;;;;;;11.50;10.70;;;19.50;99.90;;;;;;5026683;28;20219;-77
2023/08/30 08:58:53;;;;;;;7.50;7.00;;;19.80;99.90;;;;;;5029540;28;20195;-77
2023/08/30 09:01:20;;;;;;;7.20;5.80;;;19.90;99.90;;;;;;5026984;28;20235;-77
2023/08/30 09:03:48;;;;;;;9.37;8.57;;;20.10;99.90;;;;;;5029665;28;20262;-76
2023/08/30 09:06:16;;;;;;;7.87;7.27;;;20.10;99.90;;;;;;5034164;28;20210;-77
2023/08/30 09:08:43;;;;;;;4.70;4.30;;;20.20;99.90;;;;;;5028003;28;20234;-77
2023/08/30 09:11:10;;;;;;;4.63;4.23;;;20.20;99.90;;;;;;5030300;28;20319;-77
2023/08/30 09:13:37;;;;;;;4.40;4.03;;;20.40;99.90;;;;;;5026805;28;20250;-76
2023/08/30 09:16:11;;;;;;;5.63;5.23;;;20.50;99.90;;;;;;5030633;28;20258;-76
2023/08/30 09:18:38;;;;;;;4.97;4.47;;;20.50;99.90;;;;;;5028334;28;20195;-77
2023/08/30 09:21:11;;;;;;;4.20;3.80;;;20.60;99.90;;;;;;5027120;28;20247;-77
2023/08/30 09:23:37;;;;;;;6.60;4.33;;;20.60;99.90;;;;;;5030755;28;20200;-77
2023/08/30 09:26:05;;;;;;;4.60;4.20;;;20.70;99.90;;;;;;5026965;28;20200;-76
2023/08/30 09:28:32;;;;;;;10.63;10.03;;;20.60;99.90;;;;;;5032434;28;20200;-76
2023/08/30 09:31:00;;;;;;;4.30;4.00;;;20.70;99.90;;;;;;5026592;28;20309;-77
2023/08/30 09:33:34;;;;;;;10.70;10.00;;;20.90;99.90;;;;;;5025237;28;20283;-77
2023/08/30 09:36:02;;;;;;;10.73;10.03;;;21.10;99.90;;;;;;5028185;28;20196;-77
2023/08/30 09:38:30;;;;;;;4.97;4.57;;;21.20;99.90;;;;;;5027911;28;20203;-76
2023/08/30 09:41:04;;;;;;;8.60;8.00;;;21.20;99.90;;;;;;5024484;28;20270;-76
2023/08/30 09:43:34;;;;;;;6.23;5.83;;;21.30;99.90;;;;;;5025082;28;20645;-77
2023/08/30 09:46:04;;;;;;;8.93;8.33;;;21.50;99.90;;;;;;5027645;28;20287;-77
2023/08/30 09:48:32;;;;;;;4.50;4.10;;;21.60;99.90;;;;;;5031551;28;20271;-77
2023/08/30 09:51:00;;;;;;;9.77;9.17;;;21.90;99.90;;;;;;5027402;28;20204;-77
2023/08/30 09:53:27;;;;;;;10.70;9.90;;;21.90;99.90;;;;;;5029597;28;20254;-77
2023/08/30 09:55:57;;;;;;;10.87;10.17;;;22.00;99.90;;;;;;5030559;28;20199;-76
2023/08/30 09:58:27;;;;;;;6.43;6.00;;;22.20;99.90;;;;;;5026070;28;20315;-76
2023/08/30 10:00:55;;;;;;;9.50;8.90;;;22.30;99.90;;;;;;5054143;23;20285;-80
2023/08/30 10:03:22;;;;;;;11.10;10.30;;;22.30;99.90;;;;;;5038721;28;20245;-80
2023/08/30 10:05:49;;;;;;;11.63;10.93;;;22.10;99.90;;;;;;5038933;28;20214;-78
2023/08/30 10:08:17;;;;;;;10.77;10.17;;;22.10;99.90;;;;;;5037969;28;20605;-80
2023/08/30 10:10:44;;;;;;;11.63;10.90;;;22.20;99.90;;;;;;5038142;28;20219;-80
2023/08/30 10:13:12;;;;;;;10.90;10.30;;;22.00;99.90;;;;;;5036835;28;20204;-80
2023/08/30 10:15:48;;;;;;;11.93;11.13;;;22.10;99.90;;;;;;5038419;28;20192;-80
2023/08/30 10:18:20;;;;;;;7.90;7.40;;;21.90;99.90;;;;;;5036718;28;20216;-80
2023/08/30 10:20:47;;;;;;;5.20;4.80;;;22.20;99.90;;;;;;5036568;28;20589;-80
2023/08/30 10:23:15;;;;;;;8.13;7.43;;;22.20;99.90;;;;;;5036896;28;20322;-81
2023/08/30 10:25:43;;;;;;;9.27;8.67;;;22.20;99.90;;;;;;5036455;28;20261;-80
2023/08/30 10:28:12;;;;;;;8.83;8.27;;;22.00;99.90;;;;;;5037013;28;20203;-79
2023/08/30 10:30:39;;;;;;;8.43;7.93;;;21.80;99.90;;;;;;5038330;28;20200;-80
2023/08/30 10:33:13;;;;;;;9.87;9.27;;;21.80;99.90;;;;;;5036796;28;20203;-80
2023/08/30 10:35:49;;;;;;;7.83;7.23;;;21.90;99.90;;;;;;5037719;28;20279;-80
2023/08/30 10:38:26;;;;;;;8.80;8.20;;;21.90;99.90;;;;;;5046311;28;20283;-80
2023/08/30 10:40:53;;;;;;;7.67;7.10;;;21.90;99.90;;;;;;5036152;28;20310;-80
2023/08/30 10:43:31;;;;;;;10.33;9.63;;;21.80;99.90;;;;;;5037006;28;20696;-80
2023/08/30 10:46:03;;;;;;;10.70;10.10;;;21.80;99.90;;;;;;5034072;28;20616;-80
2023/08/30 10:48:37;;;;;;;9.23;8.73;;;21.80;99.90;;;;;;5037076;28;20234;-80
2023/08/30 10:51:05;;;;;;;8.10;7.60;;;21.70;99.90;;;;;;5036182;28;20235;-80
2023/08/30 10:53:32;;;;;;;4.90;4.60;;;21.50;99.90;;;;;;5036446;28;20298;-80
2023/08/30 10:56:10;;;;;;;10.13;9.53;;;21.40;99.90;;;;;;5036077;28;20261;-80
2023/08/30 10:58:44;;;;;;;10.20;9.50;;;21.40;99.90;;;;;;5036156;28;20231;-79
2023/08/30 11:01:13;;;;;;;8.97;8.47;;;21.40;99.90;;;;;;5036974;28;20258;-80
2023/08/30 11:03:42;;;;;;;9.73;9.13;;;21.50;99.90;;;;;;5036517;28;20207;-80
2023/08/30 11:06:13;;;;;;;10.10;9.50;;;21.60;99.90;;;;;;5035631;28;20201;-80
2023/08/30 11:08:40;;;;;;;10.30;9.40;;;21.70;99.90;;;;;;5032092;28;20196;-82
2023/08/30 11:11:10;;;;;;;10.30;9.70;;;21.80;99.90;;;;;;5040087;28;20216;-83
2023/08/30 11:13:37;;;;;;;9.77;9.17;;;21.80;99.90;;;;;;5039494;28;20204;-82
2023/08/30 11:16:05;;;;;;;9.60;8.90;;;21.90;99.90;;;;;;5039102;28;20234;-81
2023/08/30 11:18:38;;;;;;;9.43;8.87;;;21.90;99.90;;;;;;5038905;28;20228;-81
2023/08/30 11:21:05;;;;;;;10.50;9.80;;;21.90;99.90;;;;;;5040089;28;20273;-81
2023/08/30 11:23:32;;;;;;;6.47;6.07;;;21.90;99.90;;;;;;5039657;28;20196;-82
2023/08/30 11:25:59;;;;;;;4.87;4.50;;;21.80;99.90;;;;;;5039219;28;20214;-81
2023/08/30 11:28:26;;;;;;;10.13;9.33;;;21.80;99.90;;;;;;5040521;28;20283;-82
2023/08/30 11:30:55;;;;;;;9.73;9.03;;;21.80;99.90;;;;;;5039277;28;20259;-83
2023/08/30 11:33:23;;;;;;;4.80;4.47;;;21.80;99.90;;;;;;5038974;28;20227;-80
2023/08/30 11:35:52;;;;;;;4.40;4.00;;;21.80;99.90;;;;;;5040267;28;20257;-82
2023/08/30 11:38:20;;;;;;;4.70;4.40;;;21.90;99.90;;;;;;5039260;28;20220;-82
2023/08/30 11:40:49;;;;;;;8.63;8.13;;;21.90;99.90;;;;;;5039143;28;20230;-82
2023/08/30 11:43:16;;;;;;;9.50;8.90;;;22.00;99.90;;;;;;5039107;28;20199;-81
2023/08/30 11:45:43;;;;;;;8.90;8.30;;;22.00;99.90;;;;;;5039422;28;20196;-84
2023/08/30 11:48:10;;;;;;;6.73;6.33;;;21.80;99.90;;;;;;5038936;28;20200;-81
2023/08/30 11:50:47;;;;;;;5.67;5.30;;;21.70;99.90;;;;;;5039026;28;20647;-84
2023/08/30 11:53:14;;;;;;;8.33;7.83;;;21.80;99.90;;;;;;5039426;28;20203;-81
2023/08/30 11:55:42;;;;;;;7.10;6.60;;;21.90;99.90;;;;;;5036953;28;20200;-80
2023/08/30 11:58:09;;;;;;;5.57;5.17;;;21.90;99.90;;;;;;5036673;28;20216;-80
2023/08/30 12:00:37;;;;;;;4.33;3.27;;;21.90;99.90;;;;;;5038813;28;20681;-80
2023/08/30 12:03:06;;;;;;;5.47;4.30;;;22.00;99.90;;;;;;5037768;28;20278;-81
2023/08/30 12:05:35;;;;;;;6.60;6.20;;;22.30;99.90;;;;;;5037564;28;20191;-80
2023/08/30 12:08:03;;;;;;;6.50;6.10;;;22.50;99.90;;;;;;5036076;28;20191;-78
2023/08/30 12:10:31;;;;;;;6.10;5.70;;;22.70;99.90;;;;;;5037988;28;20210;-84
2023/08/30 12:12:58;;;;;;;8.13;7.53;;;22.70;99.90;;;;;;5039685;28;20196;-85
2023/08/30 12:15:27;;;;;;;9.60;9.00;;;22.80;99.90;;;;;;5039320;28;20206;-85
2023/08/30 12:17:55;;;;;;;8.37;7.77;;;22.90;99.90;;;;;;5036151;28;20218;-85
2023/08/30 12:20:23;;;;;;;8.60;8.10;;;22.80;99.90;;;;;;5041493;28;20207;-84
2023/08/30 12:22:51;;;;;;;8.73;8.03;;;22.80;99.90;;;;;;5035732;28;20200;-85
2023/08/30 12:25:20;;;;;;;8.07;7.57;;;22.80;99.90;;;;;;5039871;28;20726;-81
2023/08/30 12:27:48;;;;;;;8.37;7.77;;;22.80;99.90;;;;;;5033855;28;20286;-80
2023/08/30 12:30:15;;;;;;;9.77;9.07;;;22.80;99.90;;;;;;5035194;28;20200;-81
2023/08/30 12:32:43;;;;;;;10.10;9.40;;;22.80;99.90;;;;;;5037100;28;20574;-80
2023/08/30 12:35:10;;;;;;;10.23;9.63;;;22.60;99.90;;;;;;5036486;28;20226;-80
2023/08/30 12:37:37;;;;;;;9.50;8.90;;;22.40;99.90;;;;;;5036000;28;20219;-80